Bush, Illinois
Current Conditions -  °F | °C
As of 8:52 AM on Monday 22 Dec 2014 (Local Time) from KMDH Reporting Station
Haze Haze  
Wind Chill: 41°   Ceiling: 700
Heat Index: 46°   Visibility: 6mi
Dew Point: 42°   Wind: 10mph
Humidity: 86%   Direction: 160°SSE
Pressure: 29.81"   Gusts: NA
Location:  37.8209°N, 89.2055°W
Report Text: KMDH 221452Z 16009KT 6SM BR OVC007 08/06 A2981 RMK AO2 SLP097 T00780056 58009
Loading
Personal Weather Stations






























Interactive Weather Map New forecast layout! Learn more

10-Day Weather Forecast

Advertisements
Track Severe Weather on mobile